Bookmark and Share
Track history (hours):
 

Nantucket

More information available from US FCC via Universal Licensing System and Coast Guard Vessel Documentation Center.

Last reported at 2014-Apr-15 15:15 UTC. Time now 2014-Apr-17 09:41 UTC.
Position N 41°29' W 070°35'.

Length 66 m; draft 4 m.

Type: Passenger vessel. MMSI: 367324580.

NotesDate/timePositionNaut miles runAvg speedWind from/ knotsBaromVisibWave heightAir tempDewpointWater temp
2014-Apr-15 15:15N 41°29' W 070°35'1 0.1
2014-Apr-14 22:34N 41°30' W 070°37'2 1.0
2014-Apr-14 20:33N 41°30' W 070°39'4 3.8
2014-Apr-14 19:32N 41°27' W 070°36'5 5.1
2014-Apr-14 18:32N 41°31' W 070°40'2 0.9
2014-Apr-14 16:33N 41°30' W 070°39'1 0.6
2014-Apr-14 15:30N 41°30' W 070°39'1 0.7
2014-Apr-14 13:33N 41°31' W 070°40'2 1.0
2014-Apr-14 11:32N 41°30' W 070°38'1 0.5
2014-Apr-14 10:33N 41°30' W 070°37'2 1.9
2014-Apr-14 09:33N 41°29' W 070°35'4 4.2
2014-Apr-14 08:32N 41°31' W 070°40'0 0.0
2014-Apr-14 07:33N 41°31' W 070°40'0 0.0
2014-Apr-14 06:33N 41°31' W 070°40'0 0.0
2014-Apr-14 05:33N 41°31' W 070°40'2 0.3
2014-Apr-13 22:30N 41°30' W 070°39'3 2.4
2014-Apr-13 21:13N 41°29' W 070°35'1 1.1
2014-Apr-13 20:20N 41°28' W 070°35'5 6.1
2014-Apr-13 19:31N 41°31' W 070°40'2 0.9
2014-Apr-13 17:34N 41°30' W 070°39'2 1.7
2014-Apr-13 16:33N 41°31' W 070°40'5 5.1
2014-Apr-13 15:33N 41°27' W 070°36'5 5.1
2014-Apr-13 14:34N 41°31' W 070°40'5 5.2
2014-Apr-13 13:33N 41°27' W 070°36'3 2.8
2014-Apr-13 12:33N 41°30' W 070°38'2 1.7
2014-Apr-13 11:33N 41°30' W 070°40'4 4.3
2014-Apr-13 10:33N 41°27' W 070°36'0 0.0
2014-Apr-13 09:28N 41°27' W 070°36'0 0.0
2014-Apr-13 01:33N 41°27' W 070°36'5 5.2
2014-Apr-13 00:33N 41°31' W 070°40'4 3.9
2014-Apr-12 23:33N 41°29' W 070°36'1 1.3
2014-Apr-12 22:33N 41°30' W 070°37'3 0.1
2014-Apr-12 00:33N 41°31' W 070°40'4 4.2
2014-Apr-11 23:33N 41°29' W 070°35'3 3.2
2014-Apr-11 22:33N 41°30' W 070°40'1 1.0
2014-Apr-11 21:33N 41°30' W 070°38'3 3.3
2014-Apr-11 20:33N 41°27' W 070°36'5 4.4
2014-Apr-11 19:24N 41°31' W 070°40'1 0.7
2014-Apr-11 17:28N 41°30' W 070°40'2 2.1
2014-Apr-11 16:19N 41°30' W 070°37'3 0.3
2014-Apr-11 06:29N 41°31' W 070°40'0 0.0
2014-Apr-11 05:33N 41°31' W 070°40'0 0.0
2014-Apr-11 04:33N 41°31' W 070°40'0 0.0
2014-Apr-11 03:34N 41°31' W 070°40'0 0.0
2014-Apr-11 02:33N 41°31' W 070°40'5 5.2
2014-Apr-11 01:34N 41°27' W 070°36'5 5.2
2014-Apr-11 00:33N 41°31' W 070°40'5 4.7
2014-Apr-10 23:33N 41°29' W 070°35'2 2.4
2014-Apr-10 22:33N 41°30' W 070°38'1 0.6
2014-Apr-10 21:33N 41°30' W 070°39'3 2.1
2014-Apr-10 20:15N 41°29' W 070°35'4 3.6
2014-Apr-10 19:07N 41°31' W 070°40'1 0.8
2014-Apr-10 17:33N 41°30' W 070°39'1 0.8
2014-Apr-10 16:24N 41°30' W 070°38'1 0.2
2014-Apr-10 12:31N 41°30' W 070°39'1 0.0
2014-Apr-08 22:33N 41°30' W 070°38'2 0.9
2014-Apr-08 20:12N 41°29' W 070°36'4 5.5
2014-Apr-08 19:28N 41°31' W 070°40'3 0.1
2014-Apr-07 22:33N 41°30' W 070°38'2 1.7
2014-Apr-07 21:32N 41°30' W 070°40'4 3.9
2014-Apr-07 20:29N 41°27' W 070°36'5 5.3
2014-Apr-07 19:31N 41°31' W 070°40'2 1.2
2014-Apr-07 17:33N 41°30' W 070°38'1 1.3
2014-Apr-07 16:33N 41°30' W 070°40'4 3.0
2014-Apr-07 15:19N 41°29' W 070°35'5 6.0
2014-Apr-07 14:33N 41°31' W 070°40'5 5.1
2014-Apr-07 13:33N 41°27' W 070°36'3 3.3
2014-Apr-07 12:33N 41°30' W 070°39'0 0.3
2014-Apr-07 11:32N 41°30' W 070°38'2 2.2
2014-Apr-07 10:31N 41°29' W 070°36'4 4.2
2014-Apr-07 09:34N 41°31' W 070°40'0 0.0
2014-Apr-07 08:31N 41°31' W 070°40'0 0.0
2014-Apr-07 07:33N 41°31' W 070°40'0 0.0
2014-Apr-07 06:33N 41°31' W 070°40'0 0.0
2014-Apr-07 05:33N 41°31' W 070°40'0 0.0
2014-Apr-07 04:33N 41°31' W 070°40'0 0.0
2014-Apr-07 03:33N 41°31' W 070°40'5 2.1
2014-Apr-07 01:09N 41°28' W 070°35'5 8.7
2014-Apr-07 00:33N 41°31' W 070°40'4 4.1
2014-Apr-06 23:33N 41°29' W 070°36'2 2.0
2014-Apr-06 22:33N 41°30' W 070°38'0 0.1
2014-Apr-06 17:33N 41°30' W 070°38'  

Dump ship's entire track history

sailing weather and tide predictions

Nantucket — WBQ6814 — position and weather